createdAt,value
2023-01-09T00:01:30.033Z,37.37
2023-01-09T00:03:56.782Z,37.16
2023-01-09T00:06:23.679Z,36.87
2023-01-09T00:08:50.480Z,36.89
2023-01-09T00:11:17.357Z,37.14
2023-01-09T00:13:44.248Z,37.14
2023-01-09T00:16:11.215Z,36.84
2023-01-09T00:21:07.157Z,36.72
2023-01-09T00:23:34.848Z,36.70
2023-01-09T00:26:08.839Z,36.89
2023-01-09T00:28:36.021Z,36.99
2023-01-09T00:31:04.861Z,36.95
2023-01-09T00:33:38.417Z,36.98
2023-01-09T00:36:05.565Z,36.90
2023-01-09T00:38:32.192Z,36.80
2023-01-09T00:40:59.772Z,36.94
2023-01-09T00:43:30.834Z,37.00
2023-01-09T00:45:58.991Z,36.67
2023-01-09T00:48:27.394Z,36.82
2023-01-09T00:50:58.254Z,36.67
2023-01-09T00:53:29.210Z,36.61
2023-01-09T00:56:00.387Z,36.73
2023-01-09T00:58:27.185Z,36.76
2023-01-09T01:00:54.011Z,36.67
2023-01-09T01:03:20.777Z,36.64
2023-01-09T01:06:06.127Z,36.35
2023-01-09T01:08:32.780Z,36.61
2023-01-09T01:11:05.106Z,36.60
2023-01-09T01:13:32.205Z,36.47
2023-01-09T01:15:58.809Z,36.61
2023-01-09T01:18:25.657Z,36.35
2023-01-09T01:20:52.462Z,36.29
2023-01-09T01:23:19.391Z,36.34
2023-01-09T01:29:46.836Z,36.31
2023-01-09T01:32:13.702Z,36.09
2023-01-09T01:36:30.495Z,36.33
2023-01-09T01:38:57.427Z,36.05
2023-01-09T01:41:30.083Z,36.28
2023-01-09T01:44:03.474Z,36.19
2023-01-09T01:46:31.950Z,36.34
2023-01-09T01:49:07.897Z,36.22
2023-01-09T01:51:39.804Z,36.10
2023-01-09T01:54:12.352Z,36.16
2023-01-09T01:56:44.964Z,36.21
2023-01-09T01:59:26.625Z,35.97
2023-01-09T02:01:58.168Z,36.08
2023-01-09T02:04:25.225Z,36.04
2023-01-09T02:06:54.856Z,35.63
2023-01-09T02:09:26.801Z,35.91
2023-01-09T02:11:57.079Z,35.72
2023-01-09T02:14:28.046Z,35.57
2023-01-09T02:17:04.092Z,35.96
2023-01-09T02:19:45.716Z,35.89
2023-01-09T02:22:37.707Z,35.59
2023-01-09T02:25:25.669Z,35.59
2023-01-09T02:28:05.981Z,35.74
2023-01-09T02:30:40.185Z,35.55
2023-01-09T02:33:13.724Z,35.51
2023-01-09T02:36:00.679Z,35.43
2023-01-09T02:39:05.350Z,35.26
2023-01-09T02:41:48.436Z,35.29
2023-01-09T02:44:29.783Z,35.39
2023-01-09T02:47:29.355Z,35.57
2023-01-09T02:50:00.222Z,35.50
2023-01-09T02:52:45.472Z,35.12
2023-01-09T02:55:37.577Z,35.58
2023-01-09T02:58:26.046Z,35.26
2023-01-09T03:01:06.713Z,35.39
2023-01-09T03:03:42.765Z,35.36
2023-01-09T03:06:30.048Z,35.44
2023-01-09T03:09:05.307Z,35.29
2023-01-09T03:11:39.395Z,35.17
2023-01-09T03:14:12.260Z,35.12
2023-01-09T03:16:39.465Z,34.98
2023-01-09T03:19:11.479Z,34.94
2023-01-09T03:21:38.883Z,35.34
2023-01-09T03:24:05.905Z,35.29
2023-01-09T03:26:32.890Z,35.12
2023-01-09T03:28:59.815Z,35.20
2023-01-09T03:31:27.111Z,34.85
2023-01-09T03:33:53.889Z,35.07
2023-01-09T03:36:22.031Z,35.06
2023-01-09T03:38:49.332Z,34.97
2023-01-09T03:41:16.024Z,34.97
2023-01-09T03:43:42.920Z,35.08
2023-01-09T03:46:09.834Z,34.93
2023-01-09T03:48:36.555Z,34.96
2023-01-09T03:51:03.330Z,34.94
2023-01-09T03:53:29.993Z,34.72
2023-01-09T03:55:57.821Z,34.89
2023-01-09T03:58:25.670Z,34.72
2023-01-09T04:00:58.118Z,35.00
2023-01-09T04:03:24.796Z,34.96
2023-01-09T04:05:51.415Z,34.69
2023-01-09T04:08:18.954Z,34.85
2023-01-09T04:10:46.472Z,34.72
2023-01-09T04:13:13.677Z,34.61
2023-01-09T04:15:40.475Z,34.86
2023-01-09T04:18:07.798Z,34.47
2023-01-09T04:20:34.597Z,34.61
2023-01-09T04:23:01.698Z,34.79
2023-01-09T04:25:28.284Z,34.47
2023-01-09T04:27:55.018Z,34.48
2023-01-09T04:30:22.087Z,34.59
2023-01-09T04:32:48.685Z,34.65
2023-01-09T04:35:15.311Z,34.20
2023-01-09T04:37:42.080Z,34.50
2023-01-09T04:40:10.217Z,34.56
2023-01-09T04:42:37.808Z,34.21
2023-01-09T04:45:09.243Z,34.37
2023-01-09T04:47:36.114Z,34.41
2023-01-09T04:50:02.736Z,34.17
2023-01-09T04:52:30.128Z,34.17
2023-01-09T04:54:56.637Z,34.05
2023-01-09T04:57:23.313Z,34.51
2023-01-09T04:59:51.589Z,34.09
2023-01-09T05:02:18.804Z,34.24
2023-01-09T05:04:45.387Z,34.19
2023-01-09T05:07:12.170Z,34.45
2023-01-09T05:09:38.795Z,34.23
2023-01-09T05:12:06.294Z,34.45
2023-01-09T05:14:33.091Z,34.09
2023-01-09T05:16:59.700Z,34.16
2023-01-09T05:19:26.360Z,34.44
2023-01-09T05:21:52.963Z,34.83
2023-01-09T05:24:19.491Z,34.84
2023-01-09T05:26:46.170Z,34.44
2023-01-09T05:29:12.771Z,34.60
2023-01-09T05:31:39.419Z,35.43
2023-01-09T05:34:05.985Z,35.74
2023-01-09T05:36:32.810Z,36.04
2023-01-09T05:39:00.345Z,36.21
2023-01-09T05:41:26.987Z,36.19
2023-01-09T05:43:53.630Z,36.25
2023-01-09T05:46:20.206Z,36.45
2023-01-09T05:48:46.777Z,36.66
2023-01-09T05:51:13.651Z,37.00
2023-01-09T05:53:40.393Z,36.81
2023-01-09T05:56:07.373Z,37.45
2023-01-09T05:58:34.039Z,37.51
2023-01-09T06:01:00.938Z,37.69
2023-01-09T06:03:27.677Z,37.40
2023-01-09T06:05:54.758Z,36.90
2023-01-09T06:08:21.431Z,37.16
2023-01-09T06:10:48.453Z,37.11
2023-01-09T06:13:15.188Z,37.15
2023-01-09T06:15:42.349Z,36.92
2023-01-09T06:18:11.550Z,36.96
2023-01-09T06:20:38.203Z,37.72
2023-01-09T06:23:05.073Z,37.64
2023-01-09T06:25:31.799Z,37.63
2023-01-09T06:27:58.507Z,37.36
2023-01-09T06:30:25.121Z,37.33
2023-01-09T06:32:51.772Z,37.62
2023-01-09T06:35:20.674Z,37.42
2023-01-09T06:37:48.247Z,37.40
2023-01-09T06:40:15.439Z,37.22
2023-01-09T06:42:49.644Z,37.39
2023-01-09T06:45:16.746Z,37.43
2023-01-09T06:47:43.349Z,37.72
2023-01-09T06:50:10.965Z,37.95
2023-01-09T06:52:37.972Z,37.62
2023-01-09T06:55:08.442Z,37.94
2023-01-09T06:57:35.123Z,37.65
2023-01-09T07:00:02.272Z,37.70
2023-01-09T07:02:29.416Z,38.03
2023-01-09T07:04:56.052Z,37.71
2023-01-09T07:07:22.778Z,37.77
2023-01-09T07:09:52.553Z,37.38
2023-01-09T07:12:19.262Z,37.31
2023-01-09T07:14:45.838Z,37.12
2023-01-09T07:17:16.475Z,37.09
2023-01-09T07:19:43.209Z,36.82
2023-01-09T07:22:10.903Z,36.91
2023-01-09T07:24:37.584Z,36.98
2023-01-09T07:27:04.375Z,36.82
2023-01-09T07:29:31.333Z,36.97
2023-01-09T07:31:57.869Z,37.15
2023-01-09T07:34:27.522Z,37.47
2023-01-09T07:36:54.132Z,37.29
2023-01-09T07:39:20.842Z,37.34
2023-01-09T07:41:47.830Z,37.38
2023-01-09T07:44:16.178Z,37.07
2023-01-09T07:46:42.964Z,37.12
2023-01-09T07:49:09.619Z,37.31
2023-01-09T07:51:39.163Z,37.00
2023-01-09T07:54:06.387Z,37.24
2023-01-09T07:56:33.121Z,36.72
2023-01-09T07:58:59.861Z,36.94
2023-01-09T08:01:26.586Z,36.84
2023-01-09T08:03:53.424Z,36.91
2023-01-09T08:06:19.929Z,37.63
2023-01-09T08:08:46.458Z,37.33
2023-01-09T08:13:26.117Z,37.41
2023-01-09T08:15:52.809Z,37.48
2023-01-09T08:18:19.426Z,37.50
2023-01-09T08:20:48.857Z,37.38
2023-01-09T08:23:15.366Z,37.57
2023-01-09T08:25:42.094Z,37.61
2023-01-09T08:28:09.921Z,37.71
2023-01-09T08:30:37.085Z,37.90
2023-01-09T08:33:03.780Z,37.58
2023-01-09T08:35:30.530Z,37.52
2023-01-09T08:37:57.282Z,37.49
2023-01-09T08:40:23.871Z,37.05
2023-01-09T08:43:09.204Z,36.88
2023-01-09T08:45:54.475Z,37.29
2023-01-09T08:48:21.165Z,37.45
2023-01-09T08:50:47.802Z,37.15
2023-01-09T08:53:15.388Z,36.89
2023-01-09T08:55:42.972Z,36.98
2023-01-09T08:58:12.968Z,36.57
2023-01-09T09:00:39.699Z,36.62
2023-01-09T09:03:06.465Z,36.79
2023-01-09T09:05:33.609Z,36.32
2023-01-09T09:08:00.285Z,36.71
2023-01-09T09:10:29.291Z,36.58
2023-01-09T09:12:57.872Z,36.54
2023-01-09T09:15:26.488Z,36.54
2023-01-09T09:18:01.807Z,36.97
2023-01-09T09:20:34.956Z,37.62
2023-01-09T09:23:01.605Z,37.61
2023-01-09T09:25:28.681Z,37.83
2023-01-09T09:28:00.836Z,38.02
2023-01-09T09:30:27.529Z,38.16
2023-01-09T09:32:54.097Z,38.44
2023-01-09T09:35:23.243Z,38.05
2023-01-09T09:37:57.772Z,38.09
2023-01-09T09:40:33.329Z,38.02
2023-01-09T09:43:56.324Z,38.00
2023-01-09T09:46:40.129Z,38.10
2023-01-09T09:49:17.632Z,38.31
2023-01-09T09:52:24.423Z,38.24
2023-01-09T09:54:51.679Z,37.84
2023-01-09T09:57:32.189Z,38.10
2023-01-09T09:59:58.888Z,38.28
2023-01-09T10:02:32.965Z,38.19
2023-01-09T10:05:05.722Z,37.82
2023-01-09T10:07:42.159Z,37.84
2023-01-09T10:10:26.121Z,38.11
2023-01-09T10:13:00.174Z,37.84
2023-01-09T10:15:26.838Z,37.98
2023-01-09T10:18:05.825Z,37.79
2023-01-09T10:20:58.251Z,37.79
2023-01-09T10:23:55.030Z,37.76
2023-01-09T10:26:26.952Z,37.39
2023-01-09T10:29:11.968Z,37.30
2023-01-09T10:31:49.931Z,37.20
2023-01-09T10:34:37.648Z,37.33
2023-01-09T10:37:15.444Z,36.83
2023-01-09T10:39:59.563Z,36.62
2023-01-09T10:42:53.086Z,36.59
2023-01-09T10:45:19.723Z,36.70
2023-01-09T10:47:47.733Z,36.25
2023-01-09T10:50:23.470Z,36.16
2023-01-09T10:52:53.364Z,36.13
2023-01-09T10:55:47.820Z,36.08
2023-01-09T10:58:19.570Z,35.97
2023-01-09T11:00:48.247Z,35.67
2023-01-09T11:03:21.267Z,35.76
2023-01-09T11:05:53.739Z,35.59
2023-01-09T11:08:32.587Z,35.78
2023-01-09T11:11:01.228Z,35.63
2023-01-09T11:13:33.103Z,35.81
2023-01-09T11:16:18.018Z,35.67
2023-01-09T11:18:59.850Z,36.29
2023-01-09T11:21:38.176Z,36.35
2023-01-09T11:24:22.908Z,36.42
2023-01-09T11:26:53.613Z,36.79
2023-01-09T11:29:27.473Z,36.66
2023-01-09T11:31:59.122Z,36.66
2023-01-09T11:34:30.567Z,36.91
2023-01-09T11:37:07.759Z,36.79
2023-01-09T11:39:38.104Z,36.81
2023-01-09T11:42:07.107Z,36.75
2023-01-09T11:47:24.356Z,37.05
2023-01-09T11:49:51.460Z,37.00
2023-01-09T11:52:21.069Z,36.69
2023-01-09T11:54:54.236Z,36.64
2023-01-09T11:57:24.193Z,36.84
2023-01-09T11:59:51.073Z,37.01
2023-01-09T12:03:02.617Z,36.59
2023-01-09T12:05:34.844Z,36.40
2023-01-09T12:08:27.722Z,36.40
2023-01-09T12:11:02.409Z,36.31
2023-01-09T12:13:51.083Z,35.88
2023-01-09T12:16:37.273Z,35.91
2023-01-09T12:19:13.308Z,35.85
2023-01-09T12:22:28.241Z,35.90
2023-01-09T12:25:11.144Z,36.28
2023-01-09T12:28:01.145Z,36.63
2023-01-09T12:30:37.319Z,36.76
2023-01-09T12:33:03.825Z,37.09
2023-01-09T12:35:36.183Z,36.99
2023-01-09T12:38:40.120Z,37.08
2023-01-09T12:41:22.863Z,36.75
2023-01-09T12:44:11.241Z,36.41
2023-01-09T12:47:11.081Z,36.30
2023-01-09T12:49:46.650Z,35.84
2023-01-09T12:52:25.372Z,35.81
2023-01-09T12:55:15.890Z,35.78
2023-01-09T12:57:46.390Z,35.39
2023-01-09T13:00:18.696Z,35.55
2023-01-09T13:03:03.802Z,35.86
2023-01-09T13:05:40.305Z,35.63
2023-01-09T13:08:14.245Z,35.89
2023-01-09T13:10:45.294Z,36.29
2023-01-09T13:13:30.422Z,36.36
2023-01-09T13:16:00.769Z,36.47
2023-01-09T13:18:52.641Z,36.62
2023-01-09T13:21:20.275Z,36.72
2023-01-09T13:24:14.769Z,36.87
2023-01-09T13:26:52.554Z,37.08
2023-01-09T13:29:25.135Z,36.75
2023-01-09T13:32:19.849Z,36.82
2023-01-09T13:34:49.963Z,36.58
2023-01-09T13:37:26.967Z,36.67
2023-01-09T13:40:02.490Z,36.60
2023-01-09T13:42:39.862Z,36.71
2023-01-09T13:45:20.532Z,36.71
2023-01-09T13:47:47.661Z,36.68
2023-01-09T13:50:26.359Z,36.53
2023-01-09T13:52:53.443Z,36.97
2023-01-09T13:55:19.995Z,36.81
2023-01-09T13:58:04.915Z,36.68
2023-01-09T14:00:34.717Z,36.57
2023-01-09T14:03:31.349Z,36.99
2023-01-09T14:05:57.892Z,36.78
2023-01-09T14:08:27.901Z,37.05
2023-01-09T14:11:00.149Z,37.11
2023-01-09T14:13:33.752Z,36.87
2023-01-09T14:16:27.243Z,36.36
2023-01-09T14:21:13.032Z,36.53
2023-01-09T14:24:06.526Z,36.76
2023-01-09T14:26:48.046Z,37.10
2023-01-09T14:29:35.810Z,36.95
2023-01-09T14:32:21.013Z,36.88
2023-01-09T14:37:12.215Z,36.89
2023-01-09T14:39:43.810Z,36.90
2023-01-09T14:44:58.754Z,37.99
2023-01-09T14:47:31.555Z,37.95
2023-01-09T14:50:04.396Z,38.67
2023-01-09T14:52:35.926Z,38.53
2023-01-09T14:55:06.667Z,38.36
2023-01-09T14:57:34.809Z,37.54
2023-01-09T15:00:06.134Z,37.43
2023-01-09T15:02:36.655Z,36.61
2023-01-09T15:05:09.336Z,36.19
2023-01-09T15:07:44.238Z,36.43
2023-01-09T15:10:21.121Z,36.85
2023-01-09T15:12:51.051Z,37.21
2023-01-09T15:15:19.715Z,37.69
2023-01-09T15:17:52.771Z,37.66
2023-01-09T15:20:25.768Z,37.19
2023-01-09T15:22:54.566Z,36.99
2023-01-09T15:28:27.201Z,36.23
2023-01-09T15:31:25.878Z,36.01
2023-01-09T15:33:56.657Z,36.07
2023-01-09T15:36:26.886Z,35.93
2023-01-09T15:38:54.609Z,35.62
2023-01-09T15:41:50.083Z,35.82
2023-01-09T15:44:26.237Z,35.76
2023-01-09T15:46:58.131Z,35.75
2023-01-09T15:49:25.691Z,35.37
2023-01-09T15:51:53.250Z,35.60
2023-01-09T15:54:29.252Z,35.55
2023-01-09T15:57:30.855Z,35.44
2023-01-09T16:00:31.938Z,35.40
2023-01-09T16:03:11.165Z,35.34
2023-01-09T16:05:49.437Z,35.54
2023-01-09T16:08:25.627Z,35.37
2023-01-09T16:10:56.206Z,35.56
2023-01-09T16:13:26.128Z,35.30
2023-01-09T16:15:53.322Z,35.21
2023-01-09T16:18:29.221Z,35.14
2023-01-09T16:21:34.466Z,35.22
2023-01-09T16:24:14.642Z,35.37
2023-01-09T16:26:41.238Z,35.24
2023-01-09T16:29:37.158Z,35.16
2023-01-09T16:32:07.136Z,35.44
2023-01-09T16:34:35.246Z,35.15
2023-01-09T16:39:17.075Z,35.30
2023-01-09T16:42:06.060Z,35.25
2023-01-09T16:44:32.653Z,35.36
2023-01-09T16:46:59.241Z,35.38
2023-01-09T16:49:28.206Z,35.66
2023-01-09T16:51:55.668Z,35.25
2023-01-09T16:54:22.449Z,35.37
2023-01-09T16:56:52.311Z,35.43
2023-01-09T16:59:21.534Z,35.34
2023-01-09T17:01:48.546Z,35.41
2023-01-09T17:04:17.374Z,35.45
2023-01-09T17:06:47.098Z,35.35
2023-01-09T17:09:17.051Z,35.35
2023-01-09T17:11:44.522Z,35.11
2023-01-09T17:14:14.772Z,35.20
2023-01-09T17:16:43.414Z,35.30
2023-01-09T17:19:17.687Z,35.09
2023-01-09T17:21:45.538Z,35.26
2023-01-09T17:24:31.114Z,35.20
2023-01-09T17:27:16.892Z,34.94
2023-01-09T17:29:44.719Z,34.97
2023-01-09T17:32:18.343Z,35.04
2023-01-09T17:34:44.998Z,35.14
2023-01-09T17:37:17.425Z,35.23
2023-01-09T17:39:45.509Z,35.02
2023-01-09T17:42:12.238Z,34.93
2023-01-09T17:44:38.987Z,35.05
2023-01-09T17:47:07.126Z,35.22
2023-01-09T17:49:34.206Z,35.28
2023-01-09T17:52:00.863Z,35.36
2023-01-09T17:54:27.556Z,35.14
2023-01-09T17:56:54.593Z,35.57
2023-01-09T17:59:21.264Z,35.66
2023-01-09T18:01:48.430Z,35.52
2023-01-09T18:04:15.111Z,35.97
2023-01-09T18:06:41.728Z,35.69
2023-01-09T18:09:14.503Z,35.95
2023-01-09T18:11:41.651Z,36.08
2023-01-09T18:14:08.921Z,36.11
2023-01-09T18:16:36.197Z,36.13
2023-01-09T18:19:04.715Z,35.77
2023-01-09T18:21:31.386Z,36.08
2023-01-09T18:23:58.290Z,36.15
2023-01-09T18:26:27.850Z,35.66
2023-01-09T18:29:00.919Z,35.94
2023-01-09T18:31:28.702Z,35.91
2023-01-09T18:33:57.588Z,35.93
2023-01-09T18:36:32.224Z,36.36
2023-01-09T18:39:01.490Z,36.15
2023-01-09T18:41:29.019Z,36.23
2023-01-09T18:43:58.137Z,36.10
2023-01-09T18:46:26.186Z,36.14
2023-01-09T18:48:54.247Z,36.16
2023-01-09T18:51:22.307Z,35.97
2023-01-09T18:53:50.223Z,35.84
2023-01-09T18:56:19.151Z,36.19
2023-01-09T18:58:46.815Z,36.26
2023-01-09T19:01:14.888Z,36.38
2023-01-09T19:03:41.846Z,36.81
2023-01-09T19:06:08.798Z,36.65
2023-01-09T19:08:36.536Z,36.86
2023-01-09T19:11:04.232Z,36.55
2023-01-09T19:13:33.329Z,36.65
2023-01-09T19:16:00.727Z,36.61
2023-01-09T19:18:31.317Z,36.43
2023-01-09T19:20:57.909Z,36.62
2023-01-09T19:23:24.722Z,36.37
2023-01-09T19:25:52.758Z,36.22
2023-01-09T19:28:20.744Z,36.28
2023-01-09T19:30:47.875Z,36.35
2023-01-09T19:33:14.696Z,36.04
2023-01-09T19:35:41.444Z,36.04
2023-01-09T19:38:08.079Z,36.11
2023-01-09T19:40:36.390Z,36.25
2023-01-09T19:43:03.013Z,35.96
2023-01-09T19:45:29.835Z,36.24
2023-01-09T19:47:56.422Z,36.08
2023-01-09T19:50:23.065Z,36.00
2023-01-09T19:52:50.941Z,35.97
2023-01-09T19:55:17.557Z,36.10
2023-01-09T19:57:45.177Z,36.20
2023-01-09T20:00:12.769Z,36.37
2023-01-09T20:02:40.604Z,36.58
2023-01-09T20:05:08.214Z,36.47
2023-01-09T20:07:34.923Z,36.17
2023-01-09T20:10:01.700Z,36.48
2023-01-09T20:12:31.727Z,36.42
2023-01-09T20:14:58.395Z,36.19
2023-01-09T20:17:28.524Z,36.14
2023-01-09T20:19:55.284Z,36.20
2023-01-09T20:22:25.875Z,36.40
2023-01-09T20:24:52.510Z,36.04
2023-01-09T20:27:19.273Z,36.12
2023-01-09T20:29:47.920Z,36.16
2023-01-09T20:32:14.645Z,36.15
2023-01-09T20:34:42.813Z,36.25
2023-01-09T20:37:11.829Z,36.26
2023-01-09T20:39:38.623Z,36.03
2023-01-09T20:42:05.371Z,36.06
2023-01-09T20:44:32.050Z,35.98
2023-01-09T20:46:58.654Z,36.13
2023-01-09T20:49:27.871Z,36.06
2023-01-09T20:51:54.493Z,36.20
2023-01-09T20:54:22.138Z,35.82
2023-01-09T20:56:48.948Z,36.16
2023-01-09T20:59:20.207Z,36.18
2023-01-09T21:01:47.033Z,36.08
2023-01-09T21:04:13.903Z,35.92
2023-01-09T21:06:40.990Z,35.78
2023-01-09T21:09:07.629Z,36.08
2023-01-09T21:11:34.469Z,36.18
2023-01-09T21:14:01.204Z,35.87
2023-01-09T21:18:54.604Z,35.79
2023-01-09T21:21:24.521Z,36.12
2023-01-09T21:23:57.704Z,35.77
2023-01-09T21:26:28.152Z,35.76
2023-01-09T21:28:56.394Z,35.81
2023-01-09T21:31:33.692Z,35.85
2023-01-09T21:34:05.657Z,36.13
2023-01-09T21:36:33.309Z,35.87
2023-01-09T21:39:00.247Z,36.04
2023-01-09T21:41:45.788Z,35.94
2023-01-09T21:44:35.156Z,35.97
2023-01-09T21:47:03.249Z,35.93
2023-01-09T21:49:34.643Z,36.36
2023-01-09T21:52:03.451Z,36.66
2023-01-09T21:54:31.111Z,36.75
2023-01-09T21:56:57.826Z,36.60
2023-01-09T21:59:24.528Z,36.82
2023-01-09T22:01:52.032Z,36.63
2023-01-09T22:04:21.160Z,36.47
2023-01-09T22:06:48.335Z,36.59
2023-01-09T22:09:15.768Z,36.43
2023-01-09T22:11:43.264Z,36.52
2023-01-09T22:14:14.404Z,36.50
2023-01-09T22:16:42.061Z,36.21
2023-01-09T22:19:14.288Z,36.09
2023-01-09T22:21:41.077Z,36.22
2023-01-09T22:24:07.957Z,36.26
2023-01-09T22:26:35.119Z,36.14
2023-01-09T22:29:01.907Z,36.26
2023-01-09T22:31:29.278Z,36.14
2023-01-09T22:33:58.611Z,36.29
2023-01-09T22:36:28.046Z,36.10
2023-01-09T22:38:56.309Z,36.21
2023-01-09T22:41:24.647Z,36.19
2023-01-09T22:43:52.063Z,36.04
2023-01-09T22:46:19.223Z,36.28
2023-01-09T22:48:46.696Z,36.10
2023-01-09T22:51:15.943Z,35.91
2023-01-09T22:53:43.676Z,36.12
2023-01-09T22:56:15.658Z,35.81
2023-01-09T22:58:44.144Z,35.80
2023-01-09T23:01:13.824Z,35.88
2023-01-09T23:03:43.572Z,36.08
2023-01-09T23:06:14.250Z,35.83
2023-01-09T23:08:42.160Z,36.08
2023-01-09T23:11:14.052Z,35.84
2023-01-09T23:13:43.111Z,35.81
2023-01-09T23:16:10.298Z,35.94
2023-01-09T23:18:39.052Z,36.05
2023-01-09T23:21:06.972Z,35.90
2023-01-09T23:23:34.340Z,35.84
2023-01-09T23:26:05.504Z,35.75
2023-01-09T23:28:32.768Z,35.73
2023-01-09T23:30:59.424Z,35.92
2023-01-09T23:33:26.068Z,35.50
2023-01-09T23:35:52.585Z,35.79
2023-01-09T23:38:20.557Z,35.92
2023-01-09T23:40:47.202Z,35.91
2023-01-09T23:43:15.079Z,35.52
2023-01-09T23:45:44.049Z,35.49
2023-01-09T23:48:13.346Z,35.69
2023-01-09T23:50:44.732Z,35.80
2023-01-09T23:53:11.304Z,35.49
2023-01-09T23:55:37.840Z,35.70
2023-01-09T23:58:07.497Z,35.70
